createdAt,value
2018-01-05T00:00:56.000Z,3.10
2018-01-05T00:03:24.366Z,2.47
2018-01-05T00:05:52.363Z,3.87
2018-01-05T00:08:21.665Z,2.30
2018-01-05T00:10:49.994Z,3.00
2018-01-05T00:13:17.571Z,2.83
2018-01-05T00:15:45.149Z,3.80
2018-01-05T00:18:13.529Z,2.90
2018-01-05T00:20:41.931Z,2.43
2018-01-05T00:23:10.361Z,3.10
2018-01-05T00:25:38.001Z,3.73
2018-01-05T00:28:05.585Z,2.00
2018-01-05T00:30:33.173Z,3.30
2018-01-05T00:33:01.498Z,2.50
2018-01-05T00:35:29.089Z,2.70
2018-01-05T00:37:56.686Z,2.13
2018-01-05T00:40:25.057Z,3.13
2018-01-05T00:42:53.381Z,2.40
2018-01-05T00:45:21.285Z,2.17
2018-01-05T00:47:48.850Z,1.70
2018-01-05T00:50:16.507Z,2.30
2018-01-05T00:52:44.143Z,2.10
2018-01-05T00:55:12.433Z,2.70
2018-01-05T00:57:40.020Z,2.30
2018-01-05T01:00:07.569Z,2.07
2018-01-05T01:02:35.129Z,1.87
2018-01-05T01:05:03.441Z,1.93
2018-01-05T01:07:31.033Z,2.67
2018-01-05T01:09:58.593Z,1.93
2018-01-05T01:12:26.158Z,3.77
2018-01-05T01:14:54.499Z,2.40
2018-01-05T01:17:22.833Z,2.23
2018-01-05T01:19:50.403Z,2.40
2018-01-05T01:22:17.949Z,2.20
2018-01-05T01:24:45.565Z,2.30
2018-01-05T01:27:13.130Z,2.13
2018-01-05T01:29:40.713Z,2.50
2018-01-05T01:32:08.686Z,1.43
2018-01-05T01:34:36.230Z,2.20
2018-01-05T01:37:03.829Z,2.57
2018-01-05T01:39:31.378Z,3.20
2018-01-05T01:41:58.916Z,3.10
2018-01-05T01:44:26.482Z,1.77
2018-01-05T01:46:54.071Z,1.70
2018-01-05T01:49:21.699Z,2.23
2018-01-05T01:51:49.281Z,2.30
2018-01-05T01:54:16.854Z,1.80
2018-01-05T01:56:44.443Z,2.07
2018-01-05T01:59:12.035Z,3.13
2018-01-05T02:01:39.603Z,1.90
2018-01-05T02:04:07.222Z,2.40
2018-01-05T02:06:34.769Z,3.17
2018-01-05T02:09:02.365Z,3.13
2018-01-05T02:11:30.805Z,3.33
2018-01-05T02:13:58.387Z,2.80
2018-01-05T02:16:26.013Z,2.53
2018-01-05T02:18:53.587Z,2.90
2018-01-05T02:21:21.155Z,3.17
2018-01-05T02:23:48.705Z,3.30
2018-01-05T02:26:16.276Z,2.70
2018-01-05T02:28:43.919Z,3.10
2018-01-05T02:31:11.476Z,2.37
2018-01-05T02:33:39.070Z,3.67
2018-01-05T02:36:06.659Z,2.67
2018-01-05T02:38:35.009Z,2.90
2018-01-05T02:41:02.580Z,2.97
2018-01-05T02:43:30.148Z,3.77
2018-01-05T02:45:58.482Z,3.10
2018-01-05T02:48:26.057Z,3.10
2018-01-05T02:50:53.629Z,4.00
2018-01-05T02:53:21.190Z,3.83
2018-01-05T02:55:48.760Z,3.30
2018-01-05T02:58:17.120Z,2.93
2018-01-05T03:00:44.760Z,4.20
2018-01-05T03:03:12.342Z,3.87
2018-01-05T03:05:39.897Z,3.43
2018-01-05T03:08:07.470Z,3.00
2018-01-05T03:10:35.081Z,3.30
2018-01-05T03:13:02.662Z,4.93
2018-01-05T03:15:30.253Z,3.43
2018-01-05T03:17:57.833Z,3.27
2018-01-05T03:20:26.731Z,2.67
2018-01-05T03:22:55.068Z,4.07
2018-01-05T03:25:22.647Z,3.70
2018-01-05T03:27:50.200Z,3.80
2018-01-05T03:30:17.773Z,4.60
2018-01-05T03:32:45.325Z,2.83
2018-01-05T03:35:12.948Z,3.50
2018-01-05T03:37:40.549Z,4.63
2018-01-05T03:40:08.125Z,3.90
2018-01-05T03:42:36.457Z,3.20
2018-01-05T03:45:04.016Z,3.33
2018-01-05T03:47:31.573Z,3.43
2018-01-05T03:49:59.118Z,2.10
2018-01-05T03:52:26.708Z,2.47
2018-01-05T03:54:54.282Z,4.30
2018-01-05T03:57:21.863Z,3.60
2018-01-05T03:59:49.422Z,3.97
2018-01-05T04:02:17.005Z,3.93
2018-01-05T04:04:45.333Z,4.03
2018-01-05T04:07:12.926Z,3.90
2018-01-05T04:09:40.482Z,4.53
2018-01-05T04:12:08.578Z,3.20
2018-01-05T04:14:36.907Z,4.90
2018-01-05T04:17:04.506Z,3.53
2018-01-05T04:19:32.850Z,3.43
2018-01-05T04:22:00.410Z,4.37
2018-01-05T04:24:28.016Z,4.17
2018-01-05T04:26:56.357Z,4.73
2018-01-05T04:29:23.915Z,3.30
2018-01-05T04:31:51.480Z,4.10
2018-01-05T04:34:19.025Z,3.63
2018-01-05T04:36:46.610Z,2.87
2018-01-05T04:39:14.189Z,3.53
2018-01-05T04:41:42.527Z,3.67
2018-01-05T04:44:10.083Z,3.30
2018-01-05T04:46:38.457Z,3.33
2018-01-05T04:49:06.009Z,3.63
2018-01-05T04:51:33.597Z,3.63
2018-01-05T04:54:01.221Z,3.93
2018-01-05T04:56:28.826Z,3.67
2018-01-05T04:58:56.381Z,4.03
2018-01-05T05:01:24.690Z,2.57
2018-01-05T05:03:53.026Z,3.47
2018-01-05T05:06:20.589Z,3.53
2018-01-05T05:08:48.154Z,4.30
2018-01-05T05:11:15.738Z,3.40
2018-01-05T05:13:43.298Z,3.40
2018-01-05T05:16:10.848Z,2.70
2018-01-05T05:18:38.416Z,3.07
2018-01-05T05:21:05.977Z,2.60
2018-01-05T05:23:33.551Z,2.83
2018-01-05T05:26:01.106Z,2.23
2018-01-05T05:28:28.687Z,3.50
2018-01-05T05:30:57.039Z,3.00
2018-01-05T05:33:24.605Z,2.50
2018-01-05T05:35:52.169Z,3.60
2018-01-05T05:38:20.518Z,3.20
2018-01-05T05:40:48.083Z,2.93
2018-01-05T05:43:15.641Z,3.00
2018-01-05T05:45:43.214Z,4.60
2018-01-05T05:48:10.780Z,3.30
2018-01-05T05:50:38.357Z,2.90
2018-01-05T05:53:06.672Z,3.20
2018-01-05T05:55:34.240Z,3.60
2018-01-05T05:58:01.796Z,2.77
2018-01-05T06:00:30.141Z,3.63
2018-01-05T06:02:58.489Z,2.47
2018-01-05T06:05:26.058Z,2.90
2018-01-05T06:07:53.662Z,2.87
2018-01-05T06:10:21.215Z,3.33
2018-01-05T06:12:48.758Z,3.30
2018-01-05T06:15:17.097Z,3.60
2018-01-05T06:17:44.731Z,3.20
2018-01-05T06:20:12.293Z,2.80
2018-01-05T06:22:39.981Z,2.70
2018-01-05T06:25:07.594Z,3.57
2018-01-05T06:27:35.126Z,3.87
2018-01-05T06:30:02.688Z,3.43
2018-01-05T06:32:30.246Z,3.27
2018-01-05T06:34:57.813Z,2.57
2018-01-05T06:37:25.372Z,3.30
2018-01-05T06:39:52.928Z,3.00
2018-01-05T06:42:20.482Z,4.40
2018-01-05T06:44:48.057Z,2.63
2018-01-05T06:47:15.620Z,3.57
2018-01-05T06:49:43.190Z,4.50
2018-01-05T06:52:11.530Z,4.03
2018-01-05T06:54:39.095Z,3.83
2018-01-05T06:57:06.681Z,3.40
2018-01-05T06:59:34.284Z,3.73
2018-01-05T07:02:01.838Z,3.70
2018-01-05T07:04:29.423Z,3.57
2018-01-05T07:06:57.011Z,4.20
2018-01-05T07:09:24.578Z,4.60
2018-01-05T07:11:52.149Z,4.20
2018-01-05T07:14:20.470Z,3.97
2018-01-05T07:16:48.034Z,5.67
2018-01-05T07:19:15.609Z,3.57
2018-01-05T07:21:43.210Z,5.70
2018-01-05T07:24:11.557Z,3.43
2018-01-05T07:26:39.111Z,3.00
2018-01-05T07:29:06.669Z,4.17
2018-01-05T07:31:34.241Z,4.30
2018-01-05T07:34:01.817Z,4.17
2018-01-05T07:36:29.372Z,4.23
2018-01-05T07:38:56.942Z,4.23
2018-01-05T07:41:24.529Z,4.43
2018-01-05T07:43:52.876Z,4.27
2018-01-05T07:46:20.442Z,3.43
2018-01-05T07:48:48.009Z,4.50
2018-01-05T07:51:15.673Z,4.80
2018-01-05T07:53:43.228Z,4.50
2018-01-05T07:56:10.788Z,4.70
2018-01-05T07:58:38.445Z,3.80
2018-01-05T08:01:06.006Z,4.90
2018-01-05T08:03:33.578Z,5.03
2018-01-05T08:06:01.170Z,4.47
2018-01-05T08:08:28.735Z,5.73
2018-01-05T08:10:56.330Z,4.67
2018-01-05T08:13:23.893Z,5.50
2018-01-05T08:15:51.478Z,6.77
2018-01-05T08:18:19.039Z,5.00
2018-01-05T08:20:46.589Z,5.20
2018-01-05T08:23:14.174Z,5.93
2018-01-05T08:25:41.739Z,5.83
2018-01-05T08:37:56.870Z,4.07
2018-01-05T08:40:24.508Z,6.00
2018-01-05T08:42:52.140Z,4.13
2018-01-05T08:45:19.694Z,4.17
2018-01-05T08:47:47.341Z,3.90
2018-01-05T08:50:14.926Z,3.13
2018-01-05T08:52:42.504Z,4.10
2018-01-05T08:55:10.057Z,3.07
2018-01-05T08:57:37.653Z,3.50
2018-01-05T09:00:05.238Z,4.03
2018-01-05T09:02:33.570Z,3.07
2018-01-05T09:05:01.150Z,3.30
2018-01-05T09:07:28.800Z,2.70
2018-01-05T09:09:56.386Z,3.47
2018-01-05T09:12:24.712Z,3.10
2018-01-05T09:14:52.298Z,4.10
2018-01-05T09:17:19.849Z,3.53
2018-01-05T09:19:47.429Z,3.50
2018-01-05T09:22:14.997Z,3.70
2018-01-05T09:24:42.645Z,3.90
2018-01-05T09:27:10.217Z,3.73
2018-01-05T09:29:37.848Z,4.13
2018-01-05T09:32:05.514Z,3.47
2018-01-05T09:34:33.850Z,3.13
2018-01-05T09:37:02.186Z,3.37
2018-01-05T09:39:29.744Z,3.00
2018-01-05T09:41:57.527Z,3.30
2018-01-05T09:44:25.105Z,3.87
2018-01-05T09:46:53.458Z,3.20
2018-01-05T09:49:21.050Z,3.00
2018-01-05T09:51:49.403Z,3.73
2018-01-05T09:54:16.969Z,2.73
2018-01-05T09:56:44.583Z,3.40
2018-01-05T09:59:12.141Z,3.50
2018-01-05T10:01:39.741Z,3.33
2018-01-05T10:04:07.294Z,2.90
2018-01-05T10:06:34.997Z,2.57
2018-01-05T10:09:03.326Z,3.00
2018-01-05T10:11:30.910Z,3.10
2018-01-05T10:13:58.485Z,3.10
2018-01-05T10:16:26.849Z,3.07
2018-01-05T10:18:54.425Z,2.60
2018-01-05T10:21:22.768Z,2.83
2018-01-05T10:23:50.349Z,2.53
2018-01-05T10:26:17.898Z,2.23
2018-01-05T10:28:45.478Z,3.00
2018-01-05T10:31:13.026Z,3.47
2018-01-05T10:33:40.792Z,3.30
2018-01-05T10:36:08.354Z,3.07
2018-01-05T10:38:35.921Z,3.27
2018-01-05T10:41:03.481Z,2.97
2018-01-05T10:43:31.073Z,2.90
2018-01-05T10:45:59.442Z,2.60
2018-01-05T10:48:27.762Z,2.50
2018-01-05T10:50:55.319Z,2.80
2018-01-05T10:53:22.937Z,3.60
2018-01-05T10:55:51.280Z,3.37
2018-01-05T10:58:18.873Z,3.33
2018-01-05T11:00:46.445Z,3.10
2018-01-05T11:03:14.849Z,2.63
2018-01-05T11:05:42.410Z,5.40
2018-01-05T11:08:09.974Z,3.47
2018-01-05T11:10:37.561Z,4.47
2018-01-05T11:13:05.114Z,3.00
2018-01-05T11:15:32.676Z,3.17
2018-01-05T11:18:00.254Z,2.60
2018-01-05T11:20:27.819Z,2.37
2018-01-05T11:22:55.543Z,2.70
2018-01-05T11:25:23.125Z,6.33
2018-01-05T11:27:50.692Z,3.90
2018-01-05T11:30:18.260Z,3.40
2018-01-05T11:32:45.809Z,3.20
2018-01-05T11:35:13.392Z,2.60
2018-01-05T11:37:40.977Z,3.50
2018-01-05T11:40:09.337Z,3.00
2018-01-05T11:42:36.944Z,11.43
2018-01-05T11:45:04.512Z,5.80
2018-01-05T11:47:32.092Z,4.13
2018-01-05T11:50:00.286Z,4.73
2018-01-05T11:52:27.864Z,5.13
2018-01-05T11:54:56.217Z,3.70
2018-01-05T11:57:23.805Z,3.87
2018-01-05T11:59:51.369Z,4.77
2018-01-05T12:02:19.693Z,4.70
2018-01-05T12:04:47.317Z,6.10
2018-01-05T12:07:15.651Z,6.30
2018-01-05T12:09:43.224Z,5.00
2018-01-05T12:12:10.847Z,5.30
2018-01-05T12:14:38.434Z,5.63
2018-01-05T12:17:06.003Z,2.80
2018-01-05T12:19:33.591Z,4.53
2018-01-05T12:22:01.170Z,3.40
2018-01-05T12:24:29.513Z,3.00
2018-01-05T12:26:57.085Z,3.37
2018-01-05T12:29:24.622Z,3.33
2018-01-05T12:31:52.174Z,3.40
2018-01-05T12:34:19.793Z,3.07
2018-01-05T12:36:48.095Z,3.30
2018-01-05T12:39:15.698Z,3.20
2018-01-05T12:41:43.262Z,3.93
2018-01-05T12:44:10.829Z,3.60
2018-01-05T12:46:38.401Z,3.60
2018-01-05T12:49:06.751Z,3.70
2018-01-05T12:51:34.330Z,3.70
2018-01-05T12:54:01.882Z,3.90
2018-01-05T12:56:29.446Z,3.47
2018-01-05T12:58:57.210Z,4.10
2018-01-05T13:01:24.808Z,3.20
2018-01-05T13:03:52.497Z,3.77
2018-01-05T13:06:20.081Z,3.73
2018-01-05T13:08:47.664Z,3.40
2018-01-05T13:11:15.249Z,3.65
2018-01-05T13:13:42.813Z,4.17
2018-01-05T13:16:10.390Z,4.17
2018-01-05T13:18:37.950Z,4.10
2018-01-05T13:21:05.546Z,4.60
2018-01-05T13:23:33.143Z,6.17
2018-01-05T13:26:01.476Z,3.93
2018-01-05T13:28:29.087Z,6.10
2018-01-05T13:30:57.451Z,3.23
2018-01-05T13:33:25.016Z,3.90
2018-01-05T13:35:53.345Z,4.50
2018-01-05T13:38:20.933Z,4.27
2018-01-05T13:40:48.537Z,4.03
2018-01-05T13:43:16.866Z,4.53
2018-01-05T13:45:44.429Z,3.50
2018-01-05T13:48:12.026Z,3.47
2018-01-05T13:50:40.358Z,3.20
2018-01-05T13:53:07.921Z,4.40
2018-01-05T13:55:35.556Z,3.87
2018-01-05T13:58:03.170Z,3.73
2018-01-05T14:00:30.771Z,3.27
2018-01-05T14:02:58.357Z,4.80
2018-01-05T14:05:25.906Z,3.27
2018-01-05T14:07:53.490Z,4.20
2018-01-05T14:10:21.045Z,5.03
2018-01-05T14:12:48.761Z,3.90
2018-01-05T14:15:17.107Z,4.90
2018-01-05T14:17:45.469Z,4.40
2018-01-05T14:20:13.021Z,4.00
2018-01-05T14:22:40.605Z,4.13
2018-01-05T14:25:08.182Z,4.77
2018-01-05T14:27:35.774Z,5.17
2018-01-05T14:30:03.362Z,4.43
2018-01-05T14:32:30.910Z,4.20
2018-01-05T14:34:58.499Z,4.03
2018-01-05T14:37:26.059Z,4.30
2018-01-05T14:39:53.658Z,4.57
2018-01-05T14:42:22.041Z,3.93
2018-01-05T14:44:50.354Z,3.47
2018-01-05T14:47:17.927Z,4.30
2018-01-05T14:49:45.531Z,4.50
2018-01-05T14:52:13.097Z,4.53
2018-01-05T14:54:41.418Z,4.23
2018-01-05T14:57:09.006Z,4.30
2018-01-05T14:59:37.359Z,4.30
2018-01-05T15:02:04.987Z,3.93
2018-01-05T15:04:33.314Z,3.97
2018-01-05T15:07:00.911Z,4.50
2018-01-05T15:09:28.533Z,4.10
2018-01-05T15:11:56.096Z,4.53
2018-01-05T15:14:23.678Z,5.03
2018-01-05T15:16:51.265Z,6.30
2018-01-05T15:19:19.678Z,4.23
2018-01-05T15:21:47.254Z,5.00
2018-01-05T15:24:14.862Z,5.67
2018-01-05T15:26:42.425Z,3.93
2018-01-05T15:29:10.775Z,5.03
2018-01-05T15:31:38.348Z,5.90
2018-01-05T15:34:05.914Z,6.17
2018-01-05T15:36:33.502Z,4.83
2018-01-05T15:39:01.076Z,5.20
2018-01-05T15:41:28.680Z,5.43
2018-01-05T15:43:56.267Z,6.37
2018-01-05T15:46:23.843Z,7.10
2018-01-05T15:48:52.170Z,8.10
2018-01-05T15:51:19.753Z,9.07
2018-01-05T15:53:47.329Z,6.10
2018-01-05T15:56:14.925Z,5.30
2018-01-05T15:58:42.494Z,5.10
2018-01-05T16:01:10.061Z,5.93
2018-01-05T16:03:37.666Z,5.30
2018-01-05T16:06:05.230Z,5.13
2018-01-05T16:08:33.610Z,4.80
2018-01-05T16:11:01.948Z,5.17
2018-01-05T16:13:29.526Z,5.00
2018-01-05T16:15:57.089Z,4.60
2018-01-05T16:18:24.913Z,5.77
2018-01-05T16:20:52.477Z,5.37
2018-01-05T16:23:20.099Z,5.67
2018-01-05T16:25:47.653Z,5.13
2018-01-05T16:28:15.233Z,4.30
2018-01-05T16:30:43.606Z,5.07
2018-01-05T16:33:11.962Z,4.83
2018-01-05T16:35:39.589Z,5.47
2018-01-05T16:38:07.152Z,5.80
2018-01-05T16:40:34.733Z,5.27
2018-01-05T16:43:02.311Z,5.53
2018-01-05T16:45:29.890Z,5.17
2018-01-05T16:47:57.449Z,5.20
2018-01-05T16:50:25.818Z,5.87
2018-01-05T16:52:53.381Z,5.47
2018-01-05T16:55:20.957Z,5.90
2018-01-05T17:00:51.806Z,5.37
2018-01-05T17:03:19.370Z,5.07
2018-01-05T17:05:46.946Z,5.40
2018-01-05T17:08:15.275Z,4.40
2018-01-05T17:10:42.875Z,5.23
2018-01-05T17:13:11.210Z,6.43
2018-01-05T17:15:38.807Z,6.13
2018-01-05T17:18:06.409Z,5.20
2018-01-05T17:20:33.962Z,5.27
2018-01-05T17:23:01.536Z,5.07
2018-01-05T17:25:29.118Z,5.23
2018-01-05T17:27:56.708Z,4.70
2018-01-05T17:33:14.050Z,5.23
2018-01-05T17:35:41.614Z,5.73
2018-01-05T17:38:09.228Z,5.30
2018-01-05T17:40:36.830Z,4.50
2018-01-05T17:43:04.447Z,4.80
2018-01-05T17:45:32.055Z,4.77
2018-01-05T17:47:59.660Z,4.90
2018-01-05T17:50:27.256Z,4.73
2018-01-05T17:52:54.868Z,4.60
2018-01-05T17:55:22.471Z,4.50
2018-01-05T17:57:50.050Z,4.63
2018-01-05T18:00:17.650Z,4.70
2018-01-05T18:02:45.214Z,4.60
2018-01-05T18:05:12.799Z,5.00
2018-01-05T18:07:40.361Z,4.70
2018-01-05T18:10:07.966Z,4.10
2018-01-05T18:12:35.535Z,5.00
2018-01-05T18:15:03.885Z,3.83
2018-01-05T18:17:31.453Z,4.03
2018-01-05T18:19:59.072Z,4.33
2018-01-05T18:22:26.638Z,4.33
2018-01-05T18:24:54.200Z,4.70
2018-01-05T18:27:21.758Z,4.47
2018-01-05T18:29:49.322Z,4.50
2018-01-05T18:32:16.928Z,5.47
2018-01-05T18:34:44.518Z,5.07
2018-01-05T18:37:12.867Z,4.10
2018-01-05T18:39:40.456Z,4.10
2018-01-05T18:42:08.817Z,4.60
2018-01-05T18:44:36.412Z,4.23
2018-01-05T18:47:04.005Z,4.07
2018-01-05T18:49:31.633Z,4.90
2018-01-05T18:51:59.282Z,4.27
2018-01-05T18:54:27.628Z,4.20
2018-01-05T18:56:55.206Z,5.07
2018-01-05T18:59:22.777Z,6.27
2018-01-05T19:01:51.112Z,4.07
2018-01-05T19:04:18.745Z,5.27
2018-01-05T19:06:46.316Z,3.67
2018-01-05T19:09:13.912Z,4.30
2018-01-05T19:11:41.482Z,3.93
2018-01-05T19:14:09.085Z,4.90
2018-01-05T19:16:36.637Z,4.63
2018-01-05T19:19:04.193Z,4.63
2018-01-05T19:21:32.533Z,5.20
2018-01-05T19:24:00.124Z,6.00
2018-01-05T19:26:28.458Z,5.23
2018-01-05T19:28:56.011Z,4.53
2018-01-05T19:31:23.600Z,5.50
2018-01-05T19:33:51.157Z,4.70
2018-01-05T19:36:18.738Z,5.07
2018-01-05T19:38:47.209Z,6.43
2018-01-05T19:41:14.966Z,4.43
2018-01-05T19:43:42.601Z,4.97
2018-01-05T19:46:10.169Z,5.10
2018-01-05T19:48:37.758Z,5.67
2018-01-05T19:51:05.395Z,6.00
2018-01-05T19:53:33.007Z,6.50
2018-01-05T19:56:01.333Z,5.03
2018-01-05T19:58:28.994Z,4.83
2018-01-05T20:00:56.562Z,4.70
2018-01-05T20:03:24.206Z,4.77
2018-01-05T20:05:51.818Z,4.73
2018-01-05T20:08:19.464Z,4.10
2018-01-05T20:10:47.023Z,4.80
2018-01-05T20:13:14.702Z,3.80
2018-01-05T20:15:43.084Z,5.53
2018-01-05T20:18:11.976Z,4.73
2018-01-05T20:20:40.379Z,4.47
2018-01-05T20:23:07.982Z,4.90
2018-01-05T20:25:35.622Z,6.20
2018-01-05T20:28:03.285Z,4.40
2018-01-05T20:30:30.906Z,4.53
2018-01-05T20:32:59.326Z,4.10
2018-01-05T20:35:26.937Z,4.60
2018-01-05T20:37:54.726Z,5.00
2018-01-05T20:40:22.386Z,4.83
2018-01-05T20:42:51.190Z,3.90
2018-01-05T20:45:18.776Z,4.90
2018-01-05T20:47:46.622Z,4.97
2018-01-05T20:50:14.230Z,3.93
2018-01-05T20:52:41.792Z,3.20
2018-01-05T20:55:09.418Z,3.70
2018-01-05T20:57:37.041Z,4.60
2018-01-05T21:00:05.396Z,3.83
2018-01-05T21:02:33.140Z,5.50
2018-01-05T21:05:01.371Z,3.10
2018-01-05T21:07:29.719Z,3.47
2018-01-05T21:09:57.376Z,2.90
2018-01-05T21:12:25.871Z,3.53
2018-01-05T21:14:53.453Z,3.60
2018-01-05T21:17:21.787Z,3.73
2018-01-05T21:19:49.469Z,4.60
2018-01-05T21:22:17.528Z,4.17
2018-01-05T21:24:45.175Z,5.17
2018-01-05T21:27:12.779Z,4.10
2018-01-05T21:29:41.145Z,3.63
2018-01-05T21:32:08.762Z,3.70
2018-01-05T21:34:36.398Z,5.10
2018-01-05T21:37:04.742Z,3.70
2018-01-05T21:39:32.348Z,3.00
2018-01-05T21:41:59.938Z,3.63
2018-01-05T21:44:27.545Z,3.13
2018-01-05T21:46:55.109Z,2.80
2018-01-05T21:49:23.490Z,2.43
2018-01-05T21:51:51.882Z,2.77
2018-01-05T21:54:20.282Z,2.50
2018-01-05T21:56:47.847Z,2.20
2018-01-05T21:59:15.447Z,3.37
2018-01-05T22:01:43.023Z,3.00
2018-01-05T22:04:10.631Z,3.33
2018-01-05T22:06:38.269Z,4.10
2018-01-05T22:09:06.647Z,2.93
2018-01-05T22:11:35.014Z,3.33
2018-01-05T22:14:02.610Z,2.93
2018-01-05T22:16:30.160Z,2.70
2018-01-05T22:18:57.786Z,2.60
2018-01-05T22:21:25.332Z,2.37
2018-01-05T22:23:52.890Z,2.60
2018-01-05T22:26:20.468Z,2.37
2018-01-05T22:28:48.028Z,3.50
2018-01-05T22:31:15.722Z,3.10
2018-01-05T22:33:44.070Z,3.00
2018-01-05T22:36:11.662Z,3.20
2018-01-05T22:38:39.982Z,3.23
2018-01-05T22:41:07.629Z,3.20
2018-01-05T22:43:35.337Z,3.70
2018-01-05T22:46:02.917Z,2.80
2018-01-05T22:48:31.261Z,3.30
2018-01-05T22:50:58.874Z,3.40
2018-01-05T22:53:26.441Z,3.27
2018-01-05T22:55:54.065Z,3.60
2018-01-05T22:58:21.612Z,2.70
2018-01-05T23:00:49.166Z,3.40
2018-01-05T23:03:17.529Z,4.00
2018-01-05T23:05:45.118Z,3.87
2018-01-05T23:08:12.780Z,3.70
2018-01-05T23:10:40.370Z,5.00
2018-01-05T23:13:08.738Z,4.27
2018-01-05T23:15:36.302Z,3.00
2018-01-05T23:18:03.897Z,3.30
2018-01-05T23:20:31.490Z,3.87
2018-01-05T23:22:59.088Z,3.27
2018-01-05T23:25:27.422Z,3.00
2018-01-05T23:27:55.007Z,4.07
2018-01-05T23:30:22.605Z,3.23
2018-01-05T23:32:50.213Z,4.20
2018-01-05T23:35:17.789Z,3.93
2018-01-05T23:37:45.373Z,3.80
2018-01-05T23:40:13.782Z,4.60
2018-01-05T23:42:41.489Z,3.60
2018-01-05T23:45:09.334Z,3.30
2018-01-05T23:47:36.925Z,3.23
2018-01-05T23:50:04.568Z,4.30
2018-01-05T23:52:32.162Z,4.13
2018-01-05T23:55:00.613Z,3.73
2018-01-05T23:57:28.253Z,4.53
2018-01-05T23:59:55.865Z,4.53
